sensor_id;sensor_type;location;lat;lon;timestamp;P1;durP1;ratioP1;P2;durP2;ratioP2
47790;SDS011;33547;49.044;1.156;2022-08-23T00:02:02;0.70;;;0.70;;
47790;SDS011;33547;49.044;1.156;2022-08-23T00:04:34;0.70;;;0.70;;
47790;SDS011;33547;49.044;1.156;2022-08-23T00:07:07;0.82;;;0.82;;
47790;SDS011;33547;49.044;1.156;2022-08-23T00:09:37;1.63;;;0.90;;
47790;SDS011;33547;49.044;1.156;2022-08-23T00:14:46;2.05;;;0.90;;
47790;SDS011;33547;49.044;1.156;2022-08-23T00:17:17;0.73;;;0.73;;
47790;SDS011;33547;49.044;1.156;2022-08-23T00:19:44;1.30;;;0.65;;
47790;SDS011;33547;49.044;1.156;2022-08-23T00:22:12;0.98;;;0.80;;
47790;SDS011;33547;49.044;1.156;2022-08-23T00:24:39;0.80;;;0.80;;
47790;SDS011;33547;49.044;1.156;2022-08-23T00:27:11;2.30;;;0.70;;
47790;SDS011;33547;49.044;1.156;2022-08-23T00:29:41;0.70;;;0.70;;
47790;SDS011;33547;49.044;1.156;2022-08-23T00:32:19;0.90;;;0.80;;
47790;SDS011;33547;49.044;1.156;2022-08-23T00:34:54;0.70;;;0.70;;
47790;SDS011;33547;49.044;1.156;2022-08-23T00:37:21;1.25;;;1.00;;
47790;SDS011;33547;49.044;1.156;2022-08-23T00:39:48;0.63;;;0.60;;
47790;SDS011;33547;49.044;1.156;2022-08-23T00:42:25;0.85;;;0.80;;
47790;SDS011;33547;49.044;1.156;2022-08-23T00:48:27;0.90;;;0.90;;
47790;SDS011;33547;49.044;1.156;2022-08-23T00:51:11;0.98;;;0.98;;
47790;SDS011;33547;49.044;1.156;2022-08-23T00:54:01;1.13;;;0.82;;
47790;SDS011;33547;49.044;1.156;2022-08-23T00:56:30;0.68;;;0.68;;
47790;SDS011;33547;49.044;1.156;2022-08-23T00:58:58;0.75;;;0.75;;
47790;SDS011;33547;49.044;1.156;2022-08-23T01:01:25;0.73;;;0.68;;
47790;SDS011;33547;49.044;1.156;2022-08-23T01:03:52;0.80;;;0.80;;
47790;SDS011;33547;49.044;1.156;2022-08-23T01:06:24;0.88;;;0.88;;
47790;SDS011;33547;49.044;1.156;2022-08-23T01:09:13;0.70;;;0.70;;
47790;SDS011;33547;49.044;1.156;2022-08-23T01:14:42;1.88;;;0.68;;
47790;SDS011;33547;49.044;1.156;2022-08-23T01:17:19;0.73;;;0.65;;
47790;SDS011;33547;49.044;1.156;2022-08-23T01:19:56;0.75;;;0.75;;
47790;SDS011;33547;49.044;1.156;2022-08-23T01:25:32;0.60;;;0.60;;
47790;SDS011;33547;49.044;1.156;2022-08-23T01:27:59;1.35;;;0.68;;
47790;SDS011;33547;49.044;1.156;2022-08-23T01:30:30;0.80;;;0.80;;
47790;SDS011;33547;49.044;1.156;2022-08-23T01:32:58;0.75;;;0.75;;
47790;SDS011;33547;49.044;1.156;2022-08-23T01:35:37;1.58;;;0.70;;
47790;SDS011;33547;49.044;1.156;2022-08-23T01:38:08;0.88;;;0.85;;
47790;SDS011;33547;49.044;1.156;2022-08-23T01:40:35;0.77;;;0.70;;
47790;SDS011;33547;49.044;1.156;2022-08-23T01:43:04;0.88;;;0.80;;
47790;SDS011;33547;49.044;1.156;2022-08-23T01:45:30;0.90;;;0.77;;
47790;SDS011;33547;49.044;1.156;2022-08-23T01:47:57;0.80;;;0.80;;
47790;SDS011;33547;49.044;1.156;2022-08-23T01:50:24;0.77;;;0.77;;
47790;SDS011;33547;49.044;1.156;2022-08-23T01:52:52;0.93;;;0.73;;
47790;SDS011;33547;49.044;1.156;2022-08-23T01:55:18;0.88;;;0.88;;
47790;SDS011;33547;49.044;1.156;2022-08-23T01:57:46;0.73;;;0.73;;
47790;SDS011;33547;49.044;1.156;2022-08-23T02:00:15;0.75;;;0.75;;
47790;SDS011;33547;49.044;1.156;2022-08-23T02:02:43;2.03;;;1.20;;
47790;SDS011;33547;49.044;1.156;2022-08-23T02:05:10;0.90;;;0.63;;
47790;SDS011;33547;49.044;1.156;2022-08-23T02:07:37;0.80;;;0.80;;
47790;SDS011;33547;49.044;1.156;2022-08-23T02:10:03;0.70;;;0.70;;
47790;SDS011;33547;49.044;1.156;2022-08-23T02:12:31;0.70;;;0.70;;
47790;SDS011;33547;49.044;1.156;2022-08-23T02:14:57;1.25;;;0.70;;
47790;SDS011;33547;49.044;1.156;2022-08-23T02:17:23;1.50;;;0.98;;
47790;SDS011;33547;49.044;1.156;2022-08-23T02:19:49;0.70;;;0.70;;
47790;SDS011;33547;49.044;1.156;2022-08-23T02:22:15;0.90;;;0.90;;
47790;SDS011;33547;49.044;1.156;2022-08-23T02:24:44;0.60;;;0.60;;
47790;SDS011;33547;49.044;1.156;2022-08-23T02:27:12;0.75;;;0.75;;
47790;SDS011;33547;49.044;1.156;2022-08-23T02:29:40;0.93;;;0.85;;
47790;SDS011;33547;49.044;1.156;2022-08-23T02:32:10;0.70;;;0.70;;
47790;SDS011;33547;49.044;1.156;2022-08-23T02:34:39;0.90;;;0.90;;
47790;SDS011;33547;49.044;1.156;2022-08-23T02:37:07;0.80;;;0.80;;
47790;SDS011;33547;49.044;1.156;2022-08-23T02:39:35;0.70;;;0.70;;
47790;SDS011;33547;49.044;1.156;2022-08-23T02:42:01;1.10;;;0.70;;
47790;SDS011;33547;49.044;1.156;2022-08-23T02:44:27;0.95;;;0.85;;
47790;SDS011;33547;49.044;1.156;2022-08-23T02:46:55;0.88;;;0.70;;
47790;SDS011;33547;49.044;1.156;2022-08-23T02:49:21;0.80;;;0.80;;
47790;SDS011;33547;49.044;1.156;2022-08-23T02:51:46;0.75;;;0.75;;
47790;SDS011;33547;49.044;1.156;2022-08-23T02:54:12;0.70;;;0.70;;
47790;SDS011;33547;49.044;1.156;2022-08-23T02:56:38;0.60;;;0.60;;
47790;SDS011;33547;49.044;1.156;2022-08-23T02:59:04;0.70;;;0.70;;
47790;SDS011;33547;49.044;1.156;2022-08-23T03:01:32;1.15;;;0.60;;
47790;SDS011;33547;49.044;1.156;2022-08-23T03:04:02;1.10;;;1.00;;
47790;SDS011;33547;49.044;1.156;2022-08-23T03:06:32;0.70;;;0.70;;
47790;SDS011;33547;49.044;1.156;2022-08-23T03:08:59;0.70;;;0.70;;
47790;SDS011;33547;49.044;1.156;2022-08-23T03:11:25;0.85;;;0.70;;
47790;SDS011;33547;49.044;1.156;2022-08-23T03:13:51;1.02;;;0.73;;
47790;SDS011;33547;49.044;1.156;2022-08-23T03:16:20;0.90;;;0.90;;
47790;SDS011;33547;49.044;1.156;2022-08-23T03:18:46;0.63;;;0.63;;
47790;SDS011;33547;49.044;1.156;2022-08-23T03:21:13;0.70;;;0.70;;
47790;SDS011;33547;49.044;1.156;2022-08-23T03:23:40;1.10;;;0.77;;
47790;SDS011;33547;49.044;1.156;2022-08-23T03:26:06;1.00;;;1.00;;
47790;SDS011;33547;49.044;1.156;2022-08-23T03:28:35;0.70;;;0.70;;
47790;SDS011;33547;49.044;1.156;2022-08-23T03:31:02;0.70;;;0.70;;
47790;SDS011;33547;49.044;1.156;2022-08-23T03:33:29;1.08;;;0.70;;
47790;SDS011;33547;49.044;1.156;2022-08-23T03:35:58;0.75;;;0.75;;
47790;SDS011;33547;49.044;1.156;2022-08-23T03:38:25;0.70;;;0.70;;
47790;SDS011;33547;49.044;1.156;2022-08-23T03:40:52;1.40;;;1.00;;
47790;SDS011;33547;49.044;1.156;2022-08-23T03:43:18;0.93;;;0.88;;
47790;SDS011;33547;49.044;1.156;2022-08-23T03:45:45;1.13;;;1.00;;
47790;SDS011;33547;49.044;1.156;2022-08-23T03:48:11;0.95;;;0.65;;
47790;SDS011;33547;49.044;1.156;2022-08-23T03:50:37;0.70;;;0.70;;
47790;SDS011;33547;49.044;1.156;2022-08-23T03:53:03;1.15;;;0.90;;
47790;SDS011;33547;49.044;1.156;2022-08-23T03:55:30;0.70;;;0.70;;
47790;SDS011;33547;49.044;1.156;2022-08-23T03:57:56;1.10;;;0.88;;
47790;SDS011;33547;49.044;1.156;2022-08-23T04:00:22;0.90;;;0.80;;
47790;SDS011;33547;49.044;1.156;2022-08-23T04:02:48;0.70;;;0.70;;
47790;SDS011;33547;49.044;1.156;2022-08-23T04:05:14;0.60;;;0.60;;
47790;SDS011;33547;49.044;1.156;2022-08-23T04:07:40;0.65;;;0.65;;
47790;SDS011;33547;49.044;1.156;2022-08-23T04:10:07;0.80;;;0.80;;
47790;SDS011;33547;49.044;1.156;2022-08-23T04:12:37;0.70;;;0.70;;
47790;SDS011;33547;49.044;1.156;2022-08-23T04:15:05;0.80;;;0.80;;
47790;SDS011;33547;49.044;1.156;2022-08-23T04:17:31;1.27;;;0.73;;
47790;SDS011;33547;49.044;1.156;2022-08-23T04:19:57;0.80;;;0.75;;
47790;SDS011;33547;49.044;1.156;2022-08-23T04:22:23;1.05;;;0.98;;
47790;SDS011;33547;49.044;1.156;2022-08-23T04:24:49;0.40;;;0.40;;
47790;SDS011;33547;49.044;1.156;2022-08-23T04:27:15;1.40;;;0.90;;
47790;SDS011;33547;49.044;1.156;2022-08-23T04:29:41;1.75;;;0.60;;
47790;SDS011;33547;49.044;1.156;2022-08-23T04:32:08;0.60;;;0.60;;
47790;SDS011;33547;49.044;1.156;2022-08-23T04:34:36;0.70;;;0.70;;
47790;SDS011;33547;49.044;1.156;2022-08-23T04:37:06;0.90;;;0.90;;
47790;SDS011;33547;49.044;1.156;2022-08-23T04:39:34;0.70;;;0.70;;
47790;SDS011;33547;49.044;1.156;2022-08-23T04:42:20;1.83;;;1.00;;
47790;SDS011;33547;49.044;1.156;2022-08-23T04:44:47;0.88;;;0.82;;
47790;SDS011;33547;49.044;1.156;2022-08-23T04:47:14;0.85;;;0.85;;
47790;SDS011;33547;49.044;1.156;2022-08-23T04:49:39;1.05;;;0.95;;
47790;SDS011;33547;49.044;1.156;2022-08-23T04:52:05;0.60;;;0.60;;
47790;SDS011;33547;49.044;1.156;2022-08-23T04:54:31;1.23;;;0.80;;
47790;SDS011;33547;49.044;1.156;2022-08-23T04:56:57;1.55;;;0.88;;
47790;SDS011;33547;49.044;1.156;2022-08-23T04:59:23;0.90;;;0.90;;
47790;SDS011;33547;49.044;1.156;2022-08-23T05:01:49;0.90;;;0.90;;
47790;SDS011;33547;49.044;1.156;2022-08-23T05:04:15;0.85;;;0.85;;
47790;SDS011;33547;49.044;1.156;2022-08-23T05:06:41;1.00;;;1.00;;
47790;SDS011;33547;49.044;1.156;2022-08-23T05:09:07;0.73;;;0.68;;
47790;SDS011;33547;49.044;1.156;2022-08-23T05:11:33;0.85;;;0.80;;
47790;SDS011;33547;49.044;1.156;2022-08-23T05:13:59;0.73;;;0.73;;
47790;SDS011;33547;49.044;1.156;2022-08-23T05:16:25;1.50;;;0.82;;
47790;SDS011;33547;49.044;1.156;2022-08-23T05:18:51;1.83;;;0.88;;
47790;SDS011;33547;49.044;1.156;2022-08-23T05:21:18;0.73;;;0.73;;
47790;SDS011;33547;49.044;1.156;2022-08-23T05:23:47;0.80;;;0.80;;
47790;SDS011;33547;49.044;1.156;2022-08-23T05:26:13;0.95;;;0.85;;
47790;SDS011;33547;49.044;1.156;2022-08-23T05:28:41;0.75;;;0.75;;
47790;SDS011;33547;49.044;1.156;2022-08-23T05:31:13;0.60;;;0.60;;
47790;SDS011;33547;49.044;1.156;2022-08-23T05:33:46;2.05;;;1.00;;
47790;SDS011;33547;49.044;1.156;2022-08-23T05:36:13;2.95;;;1.00;;
47790;SDS011;33547;49.044;1.156;2022-08-23T05:38:42;1.95;;;0.85;;
47790;SDS011;33547;49.044;1.156;2022-08-23T05:41:08;1.13;;;0.88;;
47790;SDS011;33547;49.044;1.156;2022-08-23T05:43:34;1.10;;;0.70;;
47790;SDS011;33547;49.044;1.156;2022-08-23T05:46:08;1.33;;;1.00;;
47790;SDS011;33547;49.044;1.156;2022-08-23T05:48:38;0.50;;;0.50;;
47790;SDS011;33547;49.044;1.156;2022-08-23T05:51:17;2.28;;;0.85;;
47790;SDS011;33547;49.044;1.156;2022-08-23T05:53:49;1.90;;;1.00;;
47790;SDS011;33547;49.044;1.156;2022-08-23T05:58:49;1.63;;;1.17;;
47790;SDS011;33547;49.044;1.156;2022-08-23T06:01:17;4.45;;;1.27;;
47790;SDS011;33547;49.044;1.156;2022-08-23T06:03:44;3.40;;;1.30;;
47790;SDS011;33547;49.044;1.156;2022-08-23T06:06:11;2.60;;;1.00;;
47790;SDS011;33547;49.044;1.156;2022-08-23T06:08:39;4.82;;;1.30;;
47790;SDS011;33547;49.044;1.156;2022-08-23T06:11:10;4.15;;;1.17;;
47790;SDS011;33547;49.044;1.156;2022-08-23T06:13:50;3.05;;;1.15;;
47790;SDS011;33547;49.044;1.156;2022-08-23T06:16:22;1.17;;;0.98;;
47790;SDS011;33547;49.044;1.156;2022-08-23T06:18:52;2.60;;;1.27;;
47790;SDS011;33547;49.044;1.156;2022-08-23T06:21:19;1.70;;;1.10;;
47790;SDS011;33547;49.044;1.156;2022-08-23T06:23:45;1.10;;;1.00;;
47790;SDS011;33547;49.044;1.156;2022-08-23T06:26:16;2.67;;;1.23;;
47790;SDS011;33547;49.044;1.156;2022-08-23T06:28:46;1.20;;;0.95;;
47790;SDS011;33547;49.044;1.156;2022-08-23T06:31:14;2.85;;;1.20;;
47790;SDS011;33547;49.044;1.156;2022-08-23T06:34:01;1.10;;;1.00;;
47790;SDS011;33547;49.044;1.156;2022-08-23T06:36:26;0.98;;;0.70;;
47790;SDS011;33547;49.044;1.156;2022-08-23T06:38:53;2.30;;;1.02;;
47790;SDS011;33547;49.044;1.156;2022-08-23T06:41:19;1.33;;;0.90;;
47790;SDS011;33547;49.044;1.156;2022-08-23T06:43:45;1.63;;;0.98;;
47790;SDS011;33547;49.044;1.156;2022-08-23T06:46:12;1.70;;;1.02;;
47790;SDS011;33547;49.044;1.156;2022-08-23T06:48:41;1.02;;;0.80;;
47790;SDS011;33547;49.044;1.156;2022-08-23T06:51:09;1.13;;;0.95;;
47790;SDS011;33547;49.044;1.156;2022-08-23T06:53:58;2.28;;;0.90;;
47790;SDS011;33547;49.044;1.156;2022-08-23T06:56:26;0.60;;;0.60;;
47790;SDS011;33547;49.044;1.156;2022-08-23T06:58:53;1.30;;;0.70;;
47790;SDS011;33547;49.044;1.156;2022-08-23T07:01:20;1.10;;;0.70;;
47790;SDS011;33547;49.044;1.156;2022-08-23T07:04:10;0.82;;;0.70;;
47790;SDS011;33547;49.044;1.156;2022-08-23T07:06:38;0.93;;;0.65;;
47790;SDS011;33547;49.044;1.156;2022-08-23T07:09:05;0.70;;;0.70;;
47790;SDS011;33547;49.044;1.156;2022-08-23T07:11:31;0.85;;;0.52;;
47790;SDS011;33547;49.044;1.156;2022-08-23T07:13:58;1.90;;;0.70;;
47790;SDS011;33547;49.044;1.156;2022-08-23T07:16:30;1.50;;;0.70;;
47790;SDS011;33547;49.044;1.156;2022-08-23T07:19:03;0.63;;;0.40;;
47790;SDS011;33547;49.044;1.156;2022-08-23T07:21:30;2.40;;;1.02;;
47790;SDS011;33547;49.044;1.156;2022-08-23T07:23:56;1.55;;;0.57;;
47790;SDS011;33547;49.044;1.156;2022-08-23T07:26:22;0.82;;;0.80;;
47790;SDS011;33547;49.044;1.156;2022-08-23T07:28:49;0.63;;;0.63;;
47790;SDS011;33547;49.044;1.156;2022-08-23T07:33:54;1.25;;;0.57;;
47790;SDS011;33547;49.044;1.156;2022-08-23T07:36:23;0.63;;;0.60;;
47790;SDS011;33547;49.044;1.156;2022-08-23T07:38:51;1.05;;;0.80;;
47790;SDS011;33547;49.044;1.156;2022-08-23T07:41:18;1.50;;;0.68;;
47790;SDS011;33547;49.044;1.156;2022-08-23T07:43:49;1.67;;;0.80;;
47790;SDS011;33547;49.044;1.156;2022-08-23T07:46:15;0.60;;;0.60;;
47790;SDS011;33547;49.044;1.156;2022-08-23T07:48:41;2.17;;;0.90;;
47790;SDS011;33547;49.044;1.156;2022-08-23T07:51:09;0.88;;;0.60;;
47790;SDS011;33547;49.044;1.156;2022-08-23T07:53:37;1.08;;;0.50;;
47790;SDS011;33547;49.044;1.156;2022-08-23T07:56:04;0.77;;;0.60;;
47790;SDS011;33547;49.044;1.156;2022-08-23T07:58:32;1.00;;;0.50;;
47790;SDS011;33547;49.044;1.156;2022-08-23T08:03:55;1.40;;;0.73;;
47790;SDS011;33547;49.044;1.156;2022-08-23T08:09:05;8.63;;;1.35;;
47790;SDS011;33547;49.044;1.156;2022-08-23T08:11:32;51.92;;;6.05;;
47790;SDS011;33547;49.044;1.156;2022-08-23T08:14:00;311.00;;;27.40;;
47790;SDS011;33547;49.044;1.156;2022-08-23T08:16:40;84.75;;;8.00;;
47790;SDS011;33547;49.044;1.156;2022-08-23T08:19:10;66.85;;;5.43;;
47790;SDS011;33547;49.044;1.156;2022-08-23T08:21:39;45.13;;;3.55;;
47790;SDS011;33547;49.044;1.156;2022-08-23T08:24:06;22.55;;;2.45;;
47790;SDS011;33547;49.044;1.156;2022-08-23T08:26:35;17.05;;;2.00;;
47790;SDS011;33547;49.044;1.156;2022-08-23T08:29:01;12.43;;;1.48;;
47790;SDS011;33547;49.044;1.156;2022-08-23T08:31:28;5.25;;;1.13;;
47790;SDS011;33547;49.044;1.156;2022-08-23T08:33:54;3.38;;;0.80;;
47790;SDS011;33547;49.044;1.156;2022-08-23T08:36:30;2.08;;;0.43;;
47790;SDS011;33547;49.044;1.156;2022-08-23T08:38:56;2.55;;;0.50;;
47790;SDS011;33547;49.044;1.156;2022-08-23T08:41:33;4.05;;;0.40;;
47790;SDS011;33547;49.044;1.156;2022-08-23T08:47:21;1.45;;;0.40;;
47790;SDS011;33547;49.044;1.156;2022-08-23T08:50:17;0.68;;;0.40;;
47790;SDS011;33547;49.044;1.156;2022-08-23T08:52:45;1.52;;;0.30;;
47790;SDS011;33547;49.044;1.156;2022-08-23T08:55:24;1.70;;;0.43;;
47790;SDS011;33547;49.044;1.156;2022-08-23T08:57:55;1.13;;;0.30;;
47790;SDS011;33547;49.044;1.156;2022-08-23T09:00:30;1.65;;;0.57;;
47790;SDS011;33547;49.044;1.156;2022-08-23T09:03:03;0.20;;;0.20;;
47790;SDS011;33547;49.044;1.156;2022-08-23T09:05:36;0.43;;;0.30;;
47790;SDS011;33547;49.044;1.156;2022-08-23T09:08:41;0.75;;;0.20;;
47790;SDS011;33547;49.044;1.156;2022-08-23T09:16:53;0.35;;;0.20;;
47790;SDS011;33547;49.044;1.156;2022-08-23T09:19:32;0.20;;;0.20;;
47790;SDS011;33547;49.044;1.156;2022-08-23T09:22:03;0.57;;;0.28;;
47790;SDS011;33547;49.044;1.156;2022-08-23T09:24:37;0.22;;;0.22;;
47790;SDS011;33547;49.044;1.156;2022-08-23T09:27:04;0.30;;;0.20;;
47790;SDS011;33547;49.044;1.156;2022-08-23T09:29:33;0.70;;;0.20;;
47790;SDS011;33547;49.044;1.156;2022-08-23T09:32:05;0.45;;;0.30;;
47790;SDS011;33547;49.044;1.156;2022-08-23T09:34:52;0.20;;;0.20;;
47790;SDS011;33547;49.044;1.156;2022-08-23T09:40:43;0.30;;;0.10;;
47790;SDS011;33547;49.044;1.156;2022-08-23T09:43:24;0.98;;;0.20;;
47790;SDS011;33547;49.044;1.156;2022-08-23T09:48:44;0.13;;;0.10;;
47790;SDS011;33547;49.044;1.156;2022-08-23T09:51:17;0.43;;;0.30;;
47790;SDS011;33547;49.044;1.156;2022-08-23T09:54:07;0.35;;;0.20;;
47790;SDS011;33547;49.044;1.156;2022-08-23T09:56:42;0.15;;;0.15;;
47790;SDS011;33547;49.044;1.156;2022-08-23T09:59:58;0.30;;;0.20;;
47790;SDS011;33547;49.044;1.156;2022-08-23T10:02:14;0.30;;;0.30;;
47790;SDS011;33547;49.044;1.156;2022-08-23T10:05:05;0.52;;;0.28;;
47790;SDS011;33547;49.044;1.156;2022-08-23T10:08:00;0.98;;;0.20;;
47790;SDS011;33547;49.044;1.156;2022-08-23T10:10:35;0.10;;;0.10;;
47790;SDS011;33547;49.044;1.156;2022-08-23T10:13:10;0.10;;;0.10;;
47790;SDS011;33547;49.044;1.156;2022-08-23T10:21:33;0.10;;;0.10;;
47790;SDS011;33547;49.044;1.156;2022-08-23T10:27:04;0.13;;;0.13;;
47790;SDS011;33547;49.044;1.156;2022-08-23T10:30:13;0.30;;;0.20;;
47790;SDS011;33547;49.044;1.156;2022-08-23T10:36:08;1.08;;;0.20;;
47790;SDS011;33547;49.044;1.156;2022-08-23T10:38:55;0.20;;;0.10;;
47790;SDS011;33547;49.044;1.156;2022-08-23T10:47:37;0.20;;;0.20;;
47790;SDS011;33547;49.044;1.156;2022-08-23T10:50:15;0.30;;;0.13;;
47790;SDS011;33547;49.044;1.156;2022-08-23T10:52:58;0.10;;;0.10;;
47790;SDS011;33547;49.044;1.156;2022-08-23T10:55:36;0.10;;;0.10;;
47790;SDS011;33547;49.044;1.156;2022-08-23T10:58:35;0.20;;;0.10;;
47790;SDS011;33547;49.044;1.156;2022-08-23T11:01:17;0.10;;;0.10;;
47790;SDS011;33547;49.044;1.156;2022-08-23T11:17:28;0.98;;;0.10;;
47790;SDS011;33547;49.044;1.156;2022-08-23T11:20:13;0.10;;;0.10;;
47790;SDS011;33547;49.044;1.156;2022-08-23T11:34:48;0.17;;;0.17;;
47790;SDS011;33547;49.044;1.156;2022-08-23T11:37:25;0.10;;;0.10;;
47790;SDS011;33547;49.044;1.156;2022-08-23T11:51:10;0.10;;;0.10;;
47790;SDS011;33547;49.044;1.156;2022-08-23T12:01:48;0.20;;;0.20;;
47790;SDS011;33547;49.044;1.156;2022-08-23T12:07:06;0.90;;;0.10;;
47790;SDS011;33547;49.044;1.156;2022-08-23T12:12:13;0.60;;;0.10;;
47790;SDS011;33547;49.044;1.156;2022-08-23T12:14:55;0.17;;;0.17;;
47790;SDS011;33547;49.044;1.156;2022-08-23T12:22:51;0.28;;;0.20;;
47790;SDS011;33547;49.044;1.156;2022-08-23T12:25:24;0.20;;;0.20;;
47790;SDS011;33547;49.044;1.156;2022-08-23T12:30:54;0.03;;;0.03;;
47790;SDS011;33547;49.044;1.156;2022-08-23T12:33:38;1.95;;;0.20;;
47790;SDS011;33547;49.044;1.156;2022-08-23T12:36:16;0.20;;;0.20;;
47790;SDS011;33547;49.044;1.156;2022-08-23T12:39:19;0.22;;;0.20;;
47790;SDS011;33547;49.044;1.156;2022-08-23T12:41:51;0.10;;;0.10;;
47790;SDS011;33547;49.044;1.156;2022-08-23T12:44:40;0.20;;;0.20;;
47790;SDS011;33547;49.044;1.156;2022-08-23T12:47:09;0.08;;;0.08;;
47790;SDS011;33547;49.044;1.156;2022-08-23T12:49:53;0.10;;;0.10;;
47790;SDS011;33547;49.044;1.156;2022-08-23T12:52:26;0.30;;;0.22;;
47790;SDS011;33547;49.044;1.156;2022-08-23T12:54:58;0.55;;;0.22;;
47790;SDS011;33547;49.044;1.156;2022-08-23T13:00:17;0.10;;;0.10;;
47790;SDS011;33547;49.044;1.156;2022-08-23T13:05:36;0.38;;;0.10;;
47790;SDS011;33547;49.044;1.156;2022-08-23T13:08:13;0.20;;;0.20;;
47790;SDS011;33547;49.044;1.156;2022-08-23T13:11:01;1.25;;;0.10;;
47790;SDS011;33547;49.044;1.156;2022-08-23T13:13:31;0.10;;;0.10;;
47790;SDS011;33547;49.044;1.156;2022-08-23T13:15:58;1.00;;;0.10;;
47790;SDS011;33547;49.044;1.156;2022-08-23T13:23:47;0.57;;;0.20;;
47790;SDS011;33547;49.044;1.156;2022-08-23T13:26:39;0.77;;;0.10;;
47790;SDS011;33547;49.044;1.156;2022-08-23T13:29:09;0.10;;;0.10;;
47790;SDS011;33547;49.044;1.156;2022-08-23T13:37:25;0.47;;;0.10;;
47790;SDS011;33547;49.044;1.156;2022-08-23T13:39:58;0.10;;;0.10;;
47790;SDS011;33547;49.044;1.156;2022-08-23T13:42:49;9.82;;;0.38;;
47790;SDS011;33547;49.044;1.156;2022-08-23T13:45:26;0.35;;;0.10;;
47790;SDS011;33547;49.044;1.156;2022-08-23T13:50:32;0.20;;;0.10;;
47790;SDS011;33547;49.044;1.156;2022-08-23T13:53:00;0.10;;;0.10;;
47790;SDS011;33547;49.044;1.156;2022-08-23T13:55:27;0.10;;;0.10;;
47790;SDS011;33547;49.044;1.156;2022-08-23T13:57:55;0.15;;;0.10;;
47790;SDS011;33547;49.044;1.156;2022-08-23T14:00:22;1.35;;;0.10;;
47790;SDS011;33547;49.044;1.156;2022-08-23T14:02:49;0.28;;;0.13;;
47790;SDS011;33547;49.044;1.156;2022-08-23T14:05:18;0.10;;;0.10;;
47790;SDS011;33547;49.044;1.156;2022-08-23T14:07:47;0.30;;;0.10;;
47790;SDS011;33547;49.044;1.156;2022-08-23T14:10:17;0.22;;;0.10;;
47790;SDS011;33547;49.044;1.156;2022-08-23T14:12:46;0.10;;;0.10;;
47790;SDS011;33547;49.044;1.156;2022-08-23T14:15:14;0.20;;;0.10;;
47790;SDS011;33547;49.044;1.156;2022-08-23T14:17:42;1.17;;;0.10;;
47790;SDS011;33547;49.044;1.156;2022-08-23T14:20:12;0.50;;;0.20;;
47790;SDS011;33547;49.044;1.156;2022-08-23T14:22:40;0.43;;;0.10;;
47790;SDS011;33547;49.044;1.156;2022-08-23T14:25:07;0.10;;;0.10;;
47790;SDS011;33547;49.044;1.156;2022-08-23T14:27:34;0.32;;;0.10;;
47790;SDS011;33547;49.044;1.156;2022-08-23T14:30:04;0.10;;;0.10;;
47790;SDS011;33547;49.044;1.156;2022-08-23T14:32:32;2.45;;;0.20;;
47790;SDS011;33547;49.044;1.156;2022-08-23T14:34:58;0.03;;;0.03;;
47790;SDS011;33547;49.044;1.156;2022-08-23T14:37:24;1.27;;;0.25;;
47790;SDS011;33547;49.044;1.156;2022-08-23T14:39:50;1.77;;;0.10;;
47790;SDS011;33547;49.044;1.156;2022-08-23T14:42:18;0.98;;;0.10;;
47790;SDS011;33547;49.044;1.156;2022-08-23T14:44:46;0.10;;;0.10;;
47790;SDS011;33547;49.044;1.156;2022-08-23T14:47:12;1.15;;;0.10;;
47790;SDS011;33547;49.044;1.156;2022-08-23T14:49:38;0.20;;;0.20;;
47790;SDS011;33547;49.044;1.156;2022-08-23T14:52:04;1.10;;;0.10;;
47790;SDS011;33547;49.044;1.156;2022-08-23T14:54:30;0.28;;;0.10;;
47790;SDS011;33547;49.044;1.156;2022-08-23T14:56:56;1.13;;;0.30;;
47790;SDS011;33547;49.044;1.156;2022-08-23T14:59:22;0.10;;;0.10;;
47790;SDS011;33547;49.044;1.156;2022-08-23T15:01:48;0.20;;;0.20;;
47790;SDS011;33547;49.044;1.156;2022-08-23T15:04:18;1.83;;;0.17;;
47790;SDS011;33547;49.044;1.156;2022-08-23T15:06:47;1.15;;;0.10;;
47790;SDS011;33547;49.044;1.156;2022-08-23T15:09:14;0.10;;;0.10;;
47790;SDS011;33547;49.044;1.156;2022-08-23T15:11:41;1.00;;;0.00;;
47790;SDS011;33547;49.044;1.156;2022-08-23T15:14:07;0.93;;;0.10;;
47790;SDS011;33547;49.044;1.156;2022-08-23T15:16:33;0.10;;;0.10;;
47790;SDS011;33547;49.044;1.156;2022-08-23T15:19:00;0.22;;;0.10;;
47790;SDS011;33547;49.044;1.156;2022-08-23T15:21:26;0.52;;;0.10;;
47790;SDS011;33547;49.044;1.156;2022-08-23T15:23:52;0.10;;;0.10;;
47790;SDS011;33547;49.044;1.156;2022-08-23T15:26:21;0.10;;;0.10;;
47790;SDS011;33547;49.044;1.156;2022-08-23T15:28:48;2.30;;;0.20;;
47790;SDS011;33547;49.044;1.156;2022-08-23T15:31:16;0.22;;;0.10;;
47790;SDS011;33547;49.044;1.156;2022-08-23T15:33:43;1.80;;;0.40;;
47790;SDS011;33547;49.044;1.156;2022-08-23T15:36:10;0.15;;;0.10;;
47790;SDS011;33547;49.044;1.156;2022-08-23T15:38:37;0.22;;;0.10;;
47790;SDS011;33547;49.044;1.156;2022-08-23T15:41:04;0.43;;;0.00;;
47790;SDS011;33547;49.044;1.156;2022-08-23T15:43:30;0.30;;;0.30;;
47790;SDS011;33547;49.044;1.156;2022-08-23T15:45:57;0.22;;;0.22;;
47790;SDS011;33547;49.044;1.156;2022-08-23T15:48:28;0.13;;;0.10;;
47790;SDS011;33547;49.044;1.156;2022-08-23T15:50:59;0.10;;;0.10;;
47790;SDS011;33547;49.044;1.156;2022-08-23T15:53:26;2.72;;;0.10;;
47790;SDS011;33547;49.044;1.156;2022-08-23T15:55:51;0.10;;;0.10;;
47790;SDS011;33547;49.044;1.156;2022-08-23T15:58:22;0.30;;;0.30;;
47790;SDS011;33547;49.044;1.156;2022-08-23T16:00:50;1.55;;;0.13;;
47790;SDS011;33547;49.044;1.156;2022-08-23T16:03:18;2.47;;;0.20;;
47790;SDS011;33547;49.044;1.156;2022-08-23T16:05:45;1.33;;;0.20;;
47790;SDS011;33547;49.044;1.156;2022-08-23T16:08:18;0.00;;;0.00;;
47790;SDS011;33547;49.044;1.156;2022-08-23T16:10:52;0.10;;;0.10;;
47790;SDS011;33547;49.044;1.156;2022-08-23T16:13:20;0.52;;;0.10;;
47790;SDS011;33547;49.044;1.156;2022-08-23T16:15:46;1.33;;;0.10;;
47790;SDS011;33547;49.044;1.156;2022-08-23T16:18:13;0.55;;;0.20;;
47790;SDS011;33547;49.044;1.156;2022-08-23T16:20:39;0.10;;;0.10;;
47790;SDS011;33547;49.044;1.156;2022-08-23T16:23:06;0.20;;;0.10;;
47790;SDS011;33547;49.044;1.156;2022-08-23T16:25:33;0.22;;;0.10;;
47790;SDS011;33547;49.044;1.156;2022-08-23T16:27:59;1.13;;;0.10;;
47790;SDS011;33547;49.044;1.156;2022-08-23T16:30:25;0.77;;;0.10;;
47790;SDS011;33547;49.044;1.156;2022-08-23T16:32:53;0.73;;;0.20;;
47790;SDS011;33547;49.044;1.156;2022-08-23T16:35:20;0.30;;;0.20;;
47790;SDS011;33547;49.044;1.156;2022-08-23T16:37:46;0.85;;;0.20;;
47790;SDS011;33547;49.044;1.156;2022-08-23T16:40:12;0.13;;;0.10;;
47790;SDS011;33547;49.044;1.156;2022-08-23T16:42:38;0.50;;;0.20;;
47790;SDS011;33547;49.044;1.156;2022-08-23T16:45:04;2.95;;;0.40;;
47790;SDS011;33547;49.044;1.156;2022-08-23T16:47:32;19.45;;;1.63;;
47790;SDS011;33547;49.044;1.156;2022-08-23T16:50:04;14.00;;;1.40;;
47790;SDS011;33547;49.044;1.156;2022-08-23T16:52:30;44.88;;;4.85;;
47790;SDS011;33547;49.044;1.156;2022-08-23T16:54:56;11.27;;;1.10;;
47790;SDS011;33547;49.044;1.156;2022-08-23T16:57:22;28.25;;;2.65;;
47790;SDS011;33547;49.044;1.156;2022-08-23T16:59:48;21.88;;;3.33;;
47790;SDS011;33547;49.044;1.156;2022-08-23T17:02:26;28.02;;;2.65;;
47790;SDS011;33547;49.044;1.156;2022-08-23T17:04:55;22.77;;;2.38;;
47790;SDS011;33547;49.044;1.156;2022-08-23T17:07:22;145.07;;;15.38;;
47790;SDS011;33547;49.044;1.156;2022-08-23T17:09:48;94.43;;;11.25;;
47790;SDS011;33547;49.044;1.156;2022-08-23T17:12:14;137.10;;;16.58;;
47790;SDS011;33547;49.044;1.156;2022-08-23T17:14:42;145.95;;;14.68;;
47790;SDS011;33547;49.044;1.156;2022-08-23T17:17:12;55.40;;;5.80;;
47790;SDS011;33547;49.044;1.156;2022-08-23T17:19:39;50.70;;;5.32;;